sensor_id;sensor_type;location;lat;lon;timestamp;temperature;humidity
2174;DHT22;1093;51.424;11.764;2022-09-25T00:00:53;11.60;1.40
2174;DHT22;1093;51.424;11.764;2022-09-25T00:03:21;11.50;1.40
2174;DHT22;1093;51.424;11.764;2022-09-25T00:05:49;11.50;1.40
2174;DHT22;1093;51.424;11.764;2022-09-25T00:08:17;11.50;1.40
2174;DHT22;1093;51.424;11.764;2022-09-25T00:10:46;11.40;1.40
2174;DHT22;1093;51.424;11.764;2022-09-25T00:13:14;11.40;1.40
2174;DHT22;1093;51.424;11.764;2022-09-25T00:15:45;11.40;1.40
2174;DHT22;1093;51.424;11.764;2022-09-25T00:18:14;11.40;1.40
2174;DHT22;1093;51.424;11.764;2022-09-25T00:20:41;11.30;1.40
2174;DHT22;1093;51.424;11.764;2022-09-25T00:23:07;11.30;1.40
2174;DHT22;1093;51.424;11.764;2022-09-25T00:25:34;11.30;1.40
2174;DHT22;1093;51.424;11.764;2022-09-25T00:28:01;11.20;1.40
2174;DHT22;1093;51.424;11.764;2022-09-25T00:30:28;11.20;1.40
2174;DHT22;1093;51.424;11.764;2022-09-25T00:32:54;11.20;1.40
2174;DHT22;1093;51.424;11.764;2022-09-25T00:35:22;11.10;1.40
2174;DHT22;1093;51.424;11.764;2022-09-25T00:37:49;11.10;1.40
2174;DHT22;1093;51.424;11.764;2022-09-25T00:40:16;11.10;1.40
2174;DHT22;1093;51.424;11.764;2022-09-25T00:42:44;11.10;1.40
2174;DHT22;1093;51.424;11.764;2022-09-25T00:45:15;11.10;1.40
2174;DHT22;1093;51.424;11.764;2022-09-25T00:47:55;11.00;1.40
2174;DHT22;1093;51.424;11.764;2022-09-25T00:50:29;11.00;1.40
2174;DHT22;1093;51.424;11.764;2022-09-25T00:53:02;11.00;1.40
2174;DHT22;1093;51.424;11.764;2022-09-25T00:55:30;11.00;1.40
2174;DHT22;1093;51.424;11.764;2022-09-25T00:57:58;10.90;1.40
2174;DHT22;1093;51.424;11.764;2022-09-25T01:00:27;10.90;1.40
2174;DHT22;1093;51.424;11.764;2022-09-25T01:02:55;10.90;1.40
2174;DHT22;1093;51.424;11.764;2022-09-25T01:05:27;10.90;1.40
2174;DHT22;1093;51.424;11.764;2022-09-25T01:07:57;10.90;1.40
2174;DHT22;1093;51.424;11.764;2022-09-25T01:10:25;10.90;1.40
2174;DHT22;1093;51.424;11.764;2022-09-25T01:12:53;10.90;1.40
2174;DHT22;1093;51.424;11.764;2022-09-25T01:15:24;10.80;1.40
2174;DHT22;1093;51.424;11.764;2022-09-25T01:18:01;10.90;1.40
2174;DHT22;1093;51.424;11.764;2022-09-25T01:20:48;10.90;1.40
2174;DHT22;1093;51.424;11.764;2022-09-25T01:23:29;10.80;1.40
2174;DHT22;1093;51.424;11.764;2022-09-25T01:26:11;10.80;1.40
2174;DHT22;1093;51.424;11.764;2022-09-25T01:28:55;10.80;1.40
2174;DHT22;1093;51.424;11.764;2022-09-25T01:31:33;10.80;1.40
2174;DHT22;1093;51.424;11.764;2022-09-25T01:34:05;10.80;1.40
2174;DHT22;1093;51.424;11.764;2022-09-25T01:36:36;10.80;1.40
2174;DHT22;1093;51.424;11.764;2022-09-25T01:39:08;10.80;1.40
2174;DHT22;1093;51.424;11.764;2022-09-25T01:41:42;10.80;1.40
2174;DHT22;1093;51.424;11.764;2022-09-25T01:44:16;10.80;1.40
2174;DHT22;1093;51.424;11.764;2022-09-25T01:46:46;10.80;1.40
2174;DHT22;1093;51.424;11.764;2022-09-25T01:49:18;10.80;1.40
2174;DHT22;1093;51.424;11.764;2022-09-25T01:51:50;10.80;1.40
2174;DHT22;1093;51.424;11.764;2022-09-25T01:54:21;10.80;1.40
2174;DHT22;1093;51.424;11.764;2022-09-25T01:56:52;10.80;1.40
2174;DHT22;1093;51.424;11.764;2022-09-25T01:59:24;10.80;1.40
2174;DHT22;1093;51.424;11.764;2022-09-25T02:01:54;10.80;1.40
2174;DHT22;1093;51.424;11.764;2022-09-25T02:04:24;10.80;1.40
2174;DHT22;1093;51.424;11.764;2022-09-25T02:06:55;10.80;1.40
2174;DHT22;1093;51.424;11.764;2022-09-25T02:09:28;10.90;1.40
2174;DHT22;1093;51.424;11.764;2022-09-25T02:11:59;10.90;1.40
2174;DHT22;1093;51.424;11.764;2022-09-25T02:14:33;10.90;1.40
2174;DHT22;1093;51.424;11.764;2022-09-25T02:17:04;10.90;1.40
2174;DHT22;1093;51.424;11.764;2022-09-25T02:19:32;10.90;1.40
2174;DHT22;1093;51.424;11.764;2022-09-25T02:22:19;11.00;1.40
2174;DHT22;1093;51.424;11.764;2022-09-25T02:24:49;11.00;1.40
2174;DHT22;1093;51.424;11.764;2022-09-25T02:27:19;11.00;1.40
2174;DHT22;1093;51.424;11.764;2022-09-25T02:29:48;11.00;1.40
2174;DHT22;1093;51.424;11.764;2022-09-25T02:32:17;11.00;1.40
2174;DHT22;1093;51.424;11.764;2022-09-25T02:34:45;11.00;1.40
2174;DHT22;1093;51.424;11.764;2022-09-25T02:37:13;11.00;1.40
2174;DHT22;1093;51.424;11.764;2022-09-25T02:39:41;11.00;1.40
2174;DHT22;1093;51.424;11.764;2022-09-25T02:42:19;11.00;1.40
2174;DHT22;1093;51.424;11.764;2022-09-25T02:45:05;11.10;1.40
2174;DHT22;1093;51.424;11.764;2022-09-25T02:47:36;11.00;1.40
2174;DHT22;1093;51.424;11.764;2022-09-25T02:50:12;11.10;1.40
2174;DHT22;1093;51.424;11.764;2022-09-25T02:52:46;11.10;1.40
2174;DHT22;1093;51.424;11.764;2022-09-25T02:55:20;11.10;1.40
2174;DHT22;1093;51.424;11.764;2022-09-25T02:57:51;11.10;1.40
2174;DHT22;1093;51.424;11.764;2022-09-25T03:00:20;11.10;1.40
2174;DHT22;1093;51.424;11.764;2022-09-25T03:02:49;11.10;1.40
2174;DHT22;1093;51.424;11.764;2022-09-25T03:05:18;11.10;1.40
2174;DHT22;1093;51.424;11.764;2022-09-25T03:07:45;11.10;1.40
2174;DHT22;1093;51.424;11.764;2022-09-25T03:10:31;11.20;1.40
2174;DHT22;1093;51.424;11.764;2022-09-25T03:13:12;11.20;1.40
2174;DHT22;1093;51.424;11.764;2022-09-25T03:15:42;11.20;1.40
2174;DHT22;1093;51.424;11.764;2022-09-25T03:18:11;11.20;1.40
2174;DHT22;1093;51.424;11.764;2022-09-25T03:20:38;11.20;1.40
2174;DHT22;1093;51.424;11.764;2022-09-25T03:23:05;11.20;1.40
2174;DHT22;1093;51.424;11.764;2022-09-25T03:25:32;11.20;1.40
2174;DHT22;1093;51.424;11.764;2022-09-25T03:27:59;11.20;1.40
2174;DHT22;1093;51.424;11.764;2022-09-25T03:30:26;11.20;1.40
2174;DHT22;1093;51.424;11.764;2022-09-25T03:32:55;11.20;1.40
2174;DHT22;1093;51.424;11.764;2022-09-25T03:35:21;11.20;1.40
2174;DHT22;1093;51.424;11.764;2022-09-25T03:37:48;11.20;1.40
2174;DHT22;1093;51.424;11.764;2022-09-25T03:40:15;11.30;1.40
2174;DHT22;1093;51.424;11.764;2022-09-25T03:42:42;11.30;1.40
2174;DHT22;1093;51.424;11.764;2022-09-25T03:45:09;11.30;1.40
2174;DHT22;1093;51.424;11.764;2022-09-25T03:47:36;11.30;1.40
2174;DHT22;1093;51.424;11.764;2022-09-25T03:50:04;11.40;1.40
2174;DHT22;1093;51.424;11.764;2022-09-25T03:52:32;11.40;1.40
2174;DHT22;1093;51.424;11.764;2022-09-25T03:54:59;11.40;1.40
2174;DHT22;1093;51.424;11.764;2022-09-25T03:57:26;11.40;1.40
2174;DHT22;1093;51.424;11.764;2022-09-25T03:59:52;11.40;1.40
2174;DHT22;1093;51.424;11.764;2022-09-25T04:02:19;11.40;1.40
2174;DHT22;1093;51.424;11.764;2022-09-25T04:04:46;11.40;1.40
2174;DHT22;1093;51.424;11.764;2022-09-25T04:07:14;11.40;1.40
2174;DHT22;1093;51.424;11.764;2022-09-25T04:09:41;11.50;1.40
2174;DHT22;1093;51.424;11.764;2022-09-25T04:12:07;11.50;1.40
2174;DHT22;1093;51.424;11.764;2022-09-25T04:14:35;11.50;1.40
2174;DHT22;1093;51.424;11.764;2022-09-25T04:17:02;11.50;1.40
2174;DHT22;1093;51.424;11.764;2022-09-25T04:19:29;11.50;1.40
2174;DHT22;1093;51.424;11.764;2022-09-25T04:21:55;11.50;1.40
2174;DHT22;1093;51.424;11.764;2022-09-25T04:24:24;11.50;1.40
2174;DHT22;1093;51.424;11.764;2022-09-25T04:27:08;11.60;1.40
2174;DHT22;1093;51.424;11.764;2022-09-25T04:29:35;11.50;1.40
2174;DHT22;1093;51.424;11.764;2022-09-25T04:32:02;11.60;1.40
2174;DHT22;1093;51.424;11.764;2022-09-25T04:34:46;11.60;1.40
2174;DHT22;1093;51.424;11.764;2022-09-25T04:37:12;11.60;1.40
2174;DHT22;1093;51.424;11.764;2022-09-25T04:39:41;11.60;1.40
2174;DHT22;1093;51.424;11.764;2022-09-25T04:42:08;11.60;1.40
2174;DHT22;1093;51.424;11.764;2022-09-25T04:44:35;11.60;1.40
2174;DHT22;1093;51.424;11.764;2022-09-25T04:47:01;11.60;1.40
2174;DHT22;1093;51.424;11.764;2022-09-25T04:49:29;11.70;1.40
2174;DHT22;1093;51.424;11.764;2022-09-25T04:51:56;11.60;1.40
2174;DHT22;1093;51.424;11.764;2022-09-25T04:54:22;11.70;1.40
2174;DHT22;1093;51.424;11.764;2022-09-25T04:56:50;11.70;1.40
2174;DHT22;1093;51.424;11.764;2022-09-25T04:59:18;11.70;1.40
2174;DHT22;1093;51.424;11.764;2022-09-25T05:01:46;11.70;1.40
2174;DHT22;1093;51.424;11.764;2022-09-25T05:04:13;11.70;1.40
2174;DHT22;1093;51.424;11.764;2022-09-25T05:06:40;11.70;1.40
2174;DHT22;1093;51.424;11.764;2022-09-25T05:09:07;11.70;1.40
2174;DHT22;1093;51.424;11.764;2022-09-25T05:11:34;11.70;1.40
2174;DHT22;1093;51.424;11.764;2022-09-25T05:14:02;11.70;1.40
2174;DHT22;1093;51.424;11.764;2022-09-25T05:16:29;11.70;1.40
2174;DHT22;1093;51.424;11.764;2022-09-25T05:18:56;11.70;1.40
2174;DHT22;1093;51.424;11.764;2022-09-25T05:21:23;11.70;1.40
2174;DHT22;1093;51.424;11.764;2022-09-25T05:23:50;11.70;1.40
2174;DHT22;1093;51.424;11.764;2022-09-25T05:26:16;11.70;1.40
2174;DHT22;1093;51.424;11.764;2022-09-25T05:28:43;11.70;1.40
2174;DHT22;1093;51.424;11.764;2022-09-25T05:31:15;11.70;1.40
2174;DHT22;1093;51.424;11.764;2022-09-25T05:33:42;11.70;1.40
2174;DHT22;1093;51.424;11.764;2022-09-25T05:36:09;11.70;1.40
2174;DHT22;1093;51.424;11.764;2022-09-25T05:38:38;11.70;1.40
2174;DHT22;1093;51.424;11.764;2022-09-25T05:41:07;11.70;1.40
2174;DHT22;1093;51.424;11.764;2022-09-25T05:43:38;11.80;1.40
2174;DHT22;1093;51.424;11.764;2022-09-25T05:46:06;11.80;1.40
2174;DHT22;1093;51.424;11.764;2022-09-25T05:48:34;11.70;1.40
2174;DHT22;1093;51.424;11.764;2022-09-25T05:51:02;11.70;1.40
2174;DHT22;1093;51.424;11.764;2022-09-25T05:53:29;11.80;1.40
2174;DHT22;1093;51.424;11.764;2022-09-25T05:55:58;11.80;1.40
2174;DHT22;1093;51.424;11.764;2022-09-25T05:58:26;11.80;1.40
2174;DHT22;1093;51.424;11.764;2022-09-25T06:00:53;11.80;1.40
2174;DHT22;1093;51.424;11.764;2022-09-25T06:03:21;11.80;1.40
2174;DHT22;1093;51.424;11.764;2022-09-25T06:05:49;11.80;1.40
2174;DHT22;1093;51.424;11.764;2022-09-25T06:08:17;11.90;1.40
2174;DHT22;1093;51.424;11.764;2022-09-25T06:10:51;11.90;1.40
2174;DHT22;1093;51.424;11.764;2022-09-25T06:13:20;11.80;1.40
2174;DHT22;1093;51.424;11.764;2022-09-25T06:15:47;11.90;1.40
2174;DHT22;1093;51.424;11.764;2022-09-25T06:18:17;11.90;1.40
2174;DHT22;1093;51.424;11.764;2022-09-25T06:20:44;11.90;1.40
2174;DHT22;1093;51.424;11.764;2022-09-25T06:23:12;11.90;1.40
2174;DHT22;1093;51.424;11.764;2022-09-25T06:25:40;11.90;1.40
2174;DHT22;1093;51.424;11.764;2022-09-25T06:28:07;11.90;1.40
2174;DHT22;1093;51.424;11.764;2022-09-25T06:30:35;12.00;1.40
2174;DHT22;1093;51.424;11.764;2022-09-25T06:33:04;12.00;1.40
2174;DHT22;1093;51.424;11.764;2022-09-25T06:35:32;12.00;1.40
2174;DHT22;1093;51.424;11.764;2022-09-25T06:38:00;12.00;1.40
2174;DHT22;1093;51.424;11.764;2022-09-25T06:40:29;12.00;1.40
2174;DHT22;1093;51.424;11.764;2022-09-25T06:42:56;12.00;1.40
2174;DHT22;1093;51.424;11.764;2022-09-25T06:45:24;12.00;1.40
2174;DHT22;1093;51.424;11.764;2022-09-25T06:47:52;12.00;1.40
2174;DHT22;1093;51.424;11.764;2022-09-25T06:50:23;12.10;1.40
2174;DHT22;1093;51.424;11.764;2022-09-25T06:52:56;12.10;1.40
2174;DHT22;1093;51.424;11.764;2022-09-25T06:55:23;12.10;1.40
2174;DHT22;1093;51.424;11.764;2022-09-25T06:57:51;12.10;1.40
2174;DHT22;1093;51.424;11.764;2022-09-25T07:00:18;12.20;1.40
2174;DHT22;1093;51.424;11.764;2022-09-25T07:02:44;12.20;1.40
2174;DHT22;1093;51.424;11.764;2022-09-25T07:05:28;12.20;1.40
2174;DHT22;1093;51.424;11.764;2022-09-25T07:07:55;12.30;1.40
2174;DHT22;1093;51.424;11.764;2022-09-25T07:10:22;12.30;1.40
2174;DHT22;1093;51.424;11.764;2022-09-25T07:12:48;12.30;1.40
2174;DHT22;1093;51.424;11.764;2022-09-25T07:15:17;12.40;1.40
2174;DHT22;1093;51.424;11.764;2022-09-25T07:17:44;12.40;1.40
2174;DHT22;1093;51.424;11.764;2022-09-25T07:20:12;12.50;1.40
2174;DHT22;1093;51.424;11.764;2022-09-25T07:22:40;12.60;1.40
2174;DHT22;1093;51.424;11.764;2022-09-25T07:25:09;12.70;1.40
2174;DHT22;1093;51.424;11.764;2022-09-25T07:27:37;12.70;1.40
2174;DHT22;1093;51.424;11.764;2022-09-25T07:30:04;12.80;1.40
2174;DHT22;1093;51.424;11.764;2022-09-25T07:32:32;12.90;1.40
2174;DHT22;1093;51.424;11.764;2022-09-25T07:34:59;13.00;1.40
2174;DHT22;1093;51.424;11.764;2022-09-25T07:37:27;13.00;1.40
2174;DHT22;1093;51.424;11.764;2022-09-25T07:39:54;13.10;1.40
2174;DHT22;1093;51.424;11.764;2022-09-25T07:42:21;13.20;1.40
2174;DHT22;1093;51.424;11.764;2022-09-25T07:44:47;13.20;1.40
2174;DHT22;1093;51.424;11.764;2022-09-25T07:47:14;13.30;1.40
2174;DHT22;1093;51.424;11.764;2022-09-25T07:49:43;13.40;1.40
2174;DHT22;1093;51.424;11.764;2022-09-25T07:52:10;13.40;1.40
2174;DHT22;1093;51.424;11.764;2022-09-25T07:54:38;13.50;1.40
2174;DHT22;1093;51.424;11.764;2022-09-25T07:57:05;13.50;1.40
2174;DHT22;1093;51.424;11.764;2022-09-25T07:59:32;13.50;1.40
2174;DHT22;1093;51.424;11.764;2022-09-25T08:01:58;13.60;1.40
2174;DHT22;1093;51.424;11.764;2022-09-25T08:04:25;13.70;1.40
2174;DHT22;1093;51.424;11.764;2022-09-25T08:06:53;13.70;1.40
2174;DHT22;1093;51.424;11.764;2022-09-25T08:09:20;13.80;1.40
2174;DHT22;1093;51.424;11.764;2022-09-25T08:11:47;13.80;1.40
2174;DHT22;1093;51.424;11.764;2022-09-25T08:14:14;13.90;1.40
2174;DHT22;1093;51.424;11.764;2022-09-25T08:16:41;13.90;1.40
2174;DHT22;1093;51.424;11.764;2022-09-25T08:19:09;14.00;1.40
2174;DHT22;1093;51.424;11.764;2022-09-25T08:21:36;14.00;1.40
2174;DHT22;1093;51.424;11.764;2022-09-25T08:24:04;14.10;1.40
2174;DHT22;1093;51.424;11.764;2022-09-25T08:26:31;14.20;1.40
2174;DHT22;1093;51.424;11.764;2022-09-25T08:28:57;14.30;1.40
2174;DHT22;1093;51.424;11.764;2022-09-25T08:31:25;14.40;1.40
2174;DHT22;1093;51.424;11.764;2022-09-25T08:33:51;14.50;1.40
2174;DHT22;1093;51.424;11.764;2022-09-25T08:36:20;14.50;1.40
2174;DHT22;1093;51.424;11.764;2022-09-25T08:38:48;14.60;1.40
2174;DHT22;1093;51.424;11.764;2022-09-25T08:41:21;14.70;1.40
2174;DHT22;1093;51.424;11.764;2022-09-25T08:43:56;14.80;1.40
2174;DHT22;1093;51.424;11.764;2022-09-25T08:46:36;14.80;1.40
2174;DHT22;1093;51.424;11.764;2022-09-25T08:49:24;14.80;1.40
2174;DHT22;1093;51.424;11.764;2022-09-25T08:51:58;14.80;1.40
2174;DHT22;1093;51.424;11.764;2022-09-25T08:54:27;15.00;1.40
2174;DHT22;1093;51.424;11.764;2022-09-25T08:56:59;15.10;1.40
2174;DHT22;1093;51.424;11.764;2022-09-25T08:59:30;15.10;1.40
2174;DHT22;1093;51.424;11.764;2022-09-25T09:01:59;15.30;1.40
2174;DHT22;1093;51.424;11.764;2022-09-25T09:04:29;15.40;1.40
2174;DHT22;1093;51.424;11.764;2022-09-25T09:07:07;15.40;1.40
2174;DHT22;1093;51.424;11.764;2022-09-25T09:09:38;15.60;1.40
2174;DHT22;1093;51.424;11.764;2022-09-25T09:12:11;15.60;1.40
2174;DHT22;1093;51.424;11.764;2022-09-25T09:14:42;15.70;1.40
2174;DHT22;1093;51.424;11.764;2022-09-25T09:17:15;15.80;1.40
2174;DHT22;1093;51.424;11.764;2022-09-25T09:19:45;15.80;1.40
2174;DHT22;1093;51.424;11.764;2022-09-25T09:22:13;16.00;1.40
2174;DHT22;1093;51.424;11.764;2022-09-25T09:24:53;16.10;1.40
2174;DHT22;1093;51.424;11.764;2022-09-25T09:27:32;16.20;1.40
2174;DHT22;1093;51.424;11.764;2022-09-25T09:30:13;16.20;1.40
2174;DHT22;1093;51.424;11.764;2022-09-25T09:32:55;16.30;1.40
2174;DHT22;1093;51.424;11.764;2022-09-25T09:35:30;16.40;1.40
2174;DHT22;1093;51.424;11.764;2022-09-25T09:38:06;16.50;1.40
2174;DHT22;1093;51.424;11.764;2022-09-25T09:40:53;16.60;1.40
2174;DHT22;1093;51.424;11.764;2022-09-25T09:43:35;16.70;1.40
2174;DHT22;1093;51.424;11.764;2022-09-25T09:46:07;16.70;1.40
2174;DHT22;1093;51.424;11.764;2022-09-25T09:48:44;16.80;1.40
2174;DHT22;1093;51.424;11.764;2022-09-25T09:51:18;16.80;1.40
2174;DHT22;1093;51.424;11.764;2022-09-25T09:53:50;16.80;1.40
2174;DHT22;1093;51.424;11.764;2022-09-25T09:56:20;16.90;1.40
2174;DHT22;1093;51.424;11.764;2022-09-25T09:58:51;17.00;1.40
2174;DHT22;1093;51.424;11.764;2022-09-25T10:01:22;17.10;1.40
2174;DHT22;1093;51.424;11.764;2022-09-25T10:03:57;17.10;1.40
2174;DHT22;1093;51.424;11.764;2022-09-25T10:06:29;17.20;1.40
2174;DHT22;1093;51.424;11.764;2022-09-25T10:08:56;17.20;1.40
2174;DHT22;1093;51.424;11.764;2022-09-25T10:11:23;17.20;1.40
2174;DHT22;1093;51.424;11.764;2022-09-25T10:13:52;17.30;1.40
2174;DHT22;1093;51.424;11.764;2022-09-25T10:16:22;17.40;1.40
2174;DHT22;1093;51.424;11.764;2022-09-25T10:18:53;17.40;1.40
2174;DHT22;1093;51.424;11.764;2022-09-25T10:21:24;17.40;1.40
2174;DHT22;1093;51.424;11.764;2022-09-25T10:23:54;17.50;1.40
2174;DHT22;1093;51.424;11.764;2022-09-25T10:26:25;17.50;1.40
2174;DHT22;1093;51.424;11.764;2022-09-25T10:28:54;17.70;1.40
2174;DHT22;1093;51.424;11.764;2022-09-25T10:31:23;17.60;1.40
2174;DHT22;1093;51.424;11.764;2022-09-25T10:34:01;17.70;1.40
2174;DHT22;1093;51.424;11.764;2022-09-25T10:36:38;17.70;1.40
2174;DHT22;1093;51.424;11.764;2022-09-25T10:39:25;17.80;1.40
2174;DHT22;1093;51.424;11.764;2022-09-25T10:41:53;17.90;1.40
2174;DHT22;1093;51.424;11.764;2022-09-25T10:44:24;18.00;1.40
2174;DHT22;1093;51.424;11.764;2022-09-25T10:46:53;18.10;1.40
2174;DHT22;1093;51.424;11.764;2022-09-25T10:49:45;18.20;1.40
2174;DHT22;1093;51.424;11.764;2022-09-25T10:52:44;18.20;1.40
2174;DHT22;1093;51.424;11.764;2022-09-25T10:55:20;18.30;1.40
2174;DHT22;1093;51.424;11.764;2022-09-25T10:57:54;18.20;1.40
2174;DHT22;1093;51.424;11.764;2022-09-25T11:00:25;18.30;1.40
2174;DHT22;1093;51.424;11.764;2022-09-25T11:02:54;18.40;1.40
2174;DHT22;1093;51.424;11.764;2022-09-25T11:05:26;18.40;1.40
2174;DHT22;1093;51.424;11.764;2022-09-25T11:07:56;18.30;1.40
2174;DHT22;1093;51.424;11.764;2022-09-25T11:10:26;18.40;1.40
2174;DHT22;1093;51.424;11.764;2022-09-25T11:12:54;18.50;1.40
2174;DHT22;1093;51.424;11.764;2022-09-25T11:15:25;18.50;1.40
2174;DHT22;1093;51.424;11.764;2022-09-25T11:17:54;18.50;1.40
2174;DHT22;1093;51.424;11.764;2022-09-25T11:20:27;18.50;1.40
2174;DHT22;1093;51.424;11.764;2022-09-25T11:23:14;18.60;1.40
2174;DHT22;1093;51.424;11.764;2022-09-25T11:25:49;18.60;1.40
2174;DHT22;1093;51.424;11.764;2022-09-25T11:28:26;18.60;1.40
2174;DHT22;1093;51.424;11.764;2022-09-25T11:31:12;18.60;1.40
2174;DHT22;1093;51.424;11.764;2022-09-25T11:33:44;18.70;1.40
2174;DHT22;1093;51.424;11.764;2022-09-25T11:36:19;18.70;1.40
2174;DHT22;1093;51.424;11.764;2022-09-25T11:38:51;18.60;1.40
2174;DHT22;1093;51.424;11.764;2022-09-25T11:41:40;18.60;1.40
2174;DHT22;1093;51.424;11.764;2022-09-25T11:44:21;18.60;1.40
2174;DHT22;1093;51.424;11.764;2022-09-25T11:46:55;18.60;1.40
2174;DHT22;1093;51.424;11.764;2022-09-25T11:49:27;18.60;1.40
2174;DHT22;1093;51.424;11.764;2022-09-25T11:52:19;18.70;1.40
2174;DHT22;1093;51.424;11.764;2022-09-25T11:55:37;18.80;1.40
2174;DHT22;1093;51.424;11.764;2022-09-25T11:58:16;18.80;1.40
2174;DHT22;1093;51.424;11.764;2022-09-25T12:00:53;18.90;1.40
2174;DHT22;1093;51.424;11.764;2022-09-25T12:03:37;18.70;1.40
2174;DHT22;1093;51.424;11.764;2022-09-25T12:06:34;18.90;1.40
2174;DHT22;1093;51.424;11.764;2022-09-25T12:09:15;18.90;1.40
2174;DHT22;1093;51.424;11.764;2022-09-25T12:11:48;18.90;1.40
2174;DHT22;1093;51.424;11.764;2022-09-25T12:14:24;18.80;1.40
2174;DHT22;1093;51.424;11.764;2022-09-25T12:16:59;19.00;1.40
2174;DHT22;1093;51.424;11.764;2022-09-25T12:19:35;19.00;1.40
2174;DHT22;1093;51.424;11.764;2022-09-25T12:22:08;19.10;1.40
2174;DHT22;1093;51.424;11.764;2022-09-25T12:24:50;19.20;1.40
2174;DHT22;1093;51.424;11.764;2022-09-25T12:27:34;19.20;1.40
2174;DHT22;1093;51.424;11.764;2022-09-25T12:30:16;19.30;1.40
2174;DHT22;1093;51.424;11.764;2022-09-25T12:32:59;19.20;1.40
2174;DHT22;1093;51.424;11.764;2022-09-25T12:35:35;19.20;1.40
2174;DHT22;1093;51.424;11.764;2022-09-25T12:38:09;19.20;1.40
2174;DHT22;1093;51.424;11.764;2022-09-25T12:40:42;19.20;1.40
2174;DHT22;1093;51.424;11.764;2022-09-25T12:43:14;19.20;1.40
2174;DHT22;1093;51.424;11.764;2022-09-25T12:45:44;19.20;1.40
2174;DHT22;1093;51.424;11.764;2022-09-25T12:48:16;19.20;1.40
2174;DHT22;1093;51.424;11.764;2022-09-25T12:50:50;19.10;1.40
2174;DHT22;1093;51.424;11.764;2022-09-25T12:53:26;19.20;1.40
2174;DHT22;1093;51.424;11.764;2022-09-25T12:55:57;19.20;1.40
2174;DHT22;1093;51.424;11.764;2022-09-25T12:58:36;19.30;1.40
2174;DHT22;1093;51.424;11.764;2022-09-25T13:01:10;19.30;1.40
2174;DHT22;1093;51.424;11.764;2022-09-25T13:03:45;19.30;1.40
2174;DHT22;1093;51.424;11.764;2022-09-25T13:06:17;19.40;1.40
2174;DHT22;1093;51.424;11.764;2022-09-25T13:08:47;19.40;1.40
2174;DHT22;1093;51.424;11.764;2022-09-25T13:11:25;19.40;1.40
2174;DHT22;1093;51.424;11.764;2022-09-25T13:13:56;19.40;1.40
2174;DHT22;1093;51.424;11.764;2022-09-25T13:16:23;19.40;1.40
2174;DHT22;1093;51.424;11.764;2022-09-25T13:19:09;19.40;1.40
2174;DHT22;1093;51.424;11.764;2022-09-25T13:21:39;19.40;1.40
2174;DHT22;1093;51.424;11.764;2022-09-25T13:24:11;19.40;1.40
2174;DHT22;1093;51.424;11.764;2022-09-25T13:26:44;19.30;1.40
2174;DHT22;1093;51.424;11.764;2022-09-25T13:29:20;19.30;1.40
2174;DHT22;1093;51.424;11.764;2022-09-25T13:31:47;19.30;1.40
2174;DHT22;1093;51.424;11.764;2022-09-25T13:34:16;19.30;1.40
2174;DHT22;1093;51.424;11.764;2022-09-25T13:36:47;19.30;1.40
2174;DHT22;1093;51.424;11.764;2022-09-25T13:39:25;19.20;1.40
2174;DHT22;1093;51.424;11.764;2022-09-25T13:42:19;19.10;1.40
2174;DHT22;1093;51.424;11.764;2022-09-25T13:47:57;19.00;1.40
2174;DHT22;1093;51.424;11.764;2022-09-25T13:50:30;18.90;1.40
2174;DHT22;1093;51.424;11.764;2022-09-25T13:53:14;18.70;1.40
2174;DHT22;1093;51.424;11.764;2022-09-25T13:56:12;18.70;1.40
2174;DHT22;1093;51.424;11.764;2022-09-25T13:59:11;18.70;1.40
2174;DHT22;1093;51.424;11.764;2022-09-25T14:01:46;18.70;1.40
2174;DHT22;1093;51.424;11.764;2022-09-25T14:04:19;18.60;1.40
2174;DHT22;1093;51.424;11.764;2022-09-25T14:06:51;18.60;1.40
2174;DHT22;1093;51.424;11.764;2022-09-25T14:09:23;18.50;1.40
2174;DHT22;1093;51.424;11.764;2022-09-25T14:11:55;18.40;1.40
2174;DHT22;1093;51.424;11.764;2022-09-25T14:14:30;18.40;1.40
2174;DHT22;1093;51.424;11.764;2022-09-25T14:16:59;18.50;1.40
2174;DHT22;1093;51.424;11.764;2022-09-25T14:19:29;18.50;1.40
2174;DHT22;1093;51.424;11.764;2022-09-25T14:21:58;18.50;1.40
2174;DHT22;1093;51.424;11.764;2022-09-25T14:24:28;18.50;1.40
2174;DHT22;1093;51.424;11.764;2022-09-25T14:26:58;18.60;1.40
2174;DHT22;1093;51.424;11.764;2022-09-25T14:29:28;18.60;1.40
2174;DHT22;1093;51.424;11.764;2022-09-25T14:32:05;18.60;1.40
2174;DHT22;1093;51.424;11.764;2022-09-25T14:37:37;18.80;1.40
2174;DHT22;1093;51.424;11.764;2022-09-25T14:40:17;18.80;1.40
2174;DHT22;1093;51.424;11.764;2022-09-25T14:43:03;18.80;1.40
2174;DHT22;1093;51.424;11.764;2022-09-25T14:48:24;18.80;1.40
2174;DHT22;1093;51.424;11.764;2022-09-25T14:50:55;18.90;1.40
2174;DHT22;1093;51.424;11.764;2022-09-25T14:53:26;19.00;1.40
2174;DHT22;1093;51.424;11.764;2022-09-25T14:55:54;19.00;1.40
2174;DHT22;1093;51.424;11.764;2022-09-25T14:58:24;18.90;1.40
2174;DHT22;1093;51.424;11.764;2022-09-25T15:00:55;18.80;1.40
2174;DHT22;1093;51.424;11.764;2022-09-25T15:03:26;18.70;1.40
2174;DHT22;1093;51.424;11.764;2022-09-25T15:05:58;18.70;1.40
2174;DHT22;1093;51.424;11.764;2022-09-25T15:08:32;18.70;1.40
2174;DHT22;1093;51.424;11.764;2022-09-25T15:11:01;18.50;1.40
2174;DHT22;1093;51.424;11.764;2022-09-25T15:13:28;18.50;1.40
2174;DHT22;1093;51.424;11.764;2022-09-25T15:15:58;18.40;1.40
2174;DHT22;1093;51.424;11.764;2022-09-25T15:18:47;18.40;1.40
2174;DHT22;1093;51.424;11.764;2022-09-25T15:21:20;18.30;1.40
2174;DHT22;1093;51.424;11.764;2022-09-25T15:23:48;18.20;1.40
2174;DHT22;1093;51.424;11.764;2022-09-25T15:26:17;18.30;1.40
2174;DHT22;1093;51.424;11.764;2022-09-25T15:28:44;18.30;1.40
2174;DHT22;1093;51.424;11.764;2022-09-25T15:31:11;18.30;1.40
2174;DHT22;1093;51.424;11.764;2022-09-25T15:33:38;18.20;1.40
2174;DHT22;1093;51.424;11.764;2022-09-25T15:36:14;18.20;1.40
2174;DHT22;1093;51.424;11.764;2022-09-25T15:38:41;18.20;1.40
2174;DHT22;1093;51.424;11.764;2022-09-25T15:41:12;18.20;1.40
2174;DHT22;1093;51.424;11.764;2022-09-25T15:43:40;18.20;1.40
2174;DHT22;1093;51.424;11.764;2022-09-25T15:46:32;18.20;1.40
2174;DHT22;1093;51.424;11.764;2022-09-25T15:49:01;18.10;1.40
2174;DHT22;1093;51.424;11.764;2022-09-25T15:51:32;18.00;1.40
2174;DHT22;1093;51.424;11.764;2022-09-25T15:54:00;17.90;1.40
2174;DHT22;1093;51.424;11.764;2022-09-25T15:56:30;17.80;1.40
2174;DHT22;1093;51.424;11.764;2022-09-25T15:59:02;17.70;1.40
2174;DHT22;1093;51.424;11.764;2022-09-25T16:01:31;17.70;1.40
2174;DHT22;1093;51.424;11.764;2022-09-25T16:04:17;17.70;1.40
2174;DHT22;1093;51.424;11.764;2022-09-25T16:07:23;17.50;1.40
2174;DHT22;1093;51.424;11.764;2022-09-25T16:09:52;17.40;1.40
2174;DHT22;1093;51.424;11.764;2022-09-25T16:12:21;17.40;1.40
2174;DHT22;1093;51.424;11.764;2022-09-25T16:14:48;17.40;1.40
2174;DHT22;1093;51.424;11.764;2022-09-25T16:17:21;17.40;1.40
2174;DHT22;1093;51.424;11.764;2022-09-25T16:20:04;17.30;1.40
2174;DHT22;1093;51.424;11.764;2022-09-25T16:22:39;17.30;1.40
2174;DHT22;1093;51.424;11.764;2022-09-25T16:25:18;17.20;1.40
2174;DHT22;1093;51.424;11.764;2022-09-25T16:27:47;17.10;1.40
2174;DHT22;1093;51.424;11.764;2022-09-25T16:30:16;17.10;1.40
2174;DHT22;1093;51.424;11.764;2022-09-25T16:32:45;17.10;1.40
2174;DHT22;1093;51.424;11.764;2022-09-25T16:35:20;17.00;1.40
2174;DHT22;1093;51.424;11.764;2022-09-25T16:37:52;17.00;1.40
2174;DHT22;1093;51.424;11.764;2022-09-25T16:40:22;17.00;1.40